• Join FlightAware (Why Join?)
  • Login
  • US Flag 
02:51PM EDT


 

Airport Tracker/Info


-or-


 

Live Flight TrackerFlight Track Log ✈ SWA714 ✈ 12-Apr-2013 ✈ KDAL - KLBB

Flight Track Log - Related Links

Times and Time Zones

All times are in EDT time to prevent confusion due to time zone crossing. See the SWA714 flight status page for this flight to view local times or setup timezone preferences in your user account.

Time Position Orientation Groundspeed Altitude Reporting Facility
EDT Latitude Longitude Course Direction KTS MPH feet Rate Location/Type
06:07PM 32.8167 -96.8167 140° Southeast 178 205 2,000  Level Dallas / Fort Worth TRACON
06:08PM 32.7667 -96.7667 140° Southeast 230 265 5,400 3,120 Climbing Dallas / Fort Worth TRACON
06:09PM 32.7000 -96.7833 192° South 247 284 8,300 2,520 Climbing Dallas / Fort Worth TRACON
06:11PM 32.7094 -96.9517 274° West 285 328 12,600 2,520 Climbing Fort Worth Center
06:12PM 32.7472 -97.0578 293° West 327 376 15,700 3,000 Climbing Fort Worth Center
06:13PM 32.7850 -97.1639 293° West 345 397 18,700 2,640 Climbing Fort Worth Center
06:14PM 32.8208 -97.2700 292° West 350 403 21,000 1,860 Climbing Fort Worth Center
06:15PM 32.8500 -97.3567 292° West 350 403 22,500 1,800 Climbing Fort Worth Center
06:16PM 32.8958 -97.4853 293° West 366 421 24,700 1,980 Climbing Fort Worth Center
06:17PM 32.9333 -97.5992 291° West 378 435 26,500 1,500 Climbing Fort Worth Center
06:18PM 32.9792 -97.7303 293° West 378 435 27,700 1,320 Climbing Fort Worth Center
06:19PM 33.0017 -97.8569 282° West 385 443 29,200 1,740 Climbing Fort Worth Center
06:20PM 33.0219 -97.9783 281° West 385 443 31,200 1,740 Climbing Fort Worth Center
06:21PM 33.0444 -98.1000 282° West 385 443 32,700 1,380 Climbing Fort Worth Center
06:22PM 33.0667 -98.2192 283° West 375 432 34,000 1,380 Climbing Fort Worth Center
06:23PM 33.0867 -98.3408 281° West 370 426 35,500 960 Climbing Fort Worth Center
06:24PM 33.1067 -98.4428 283° West 370 426 36,000 240 Climbing Fort Worth Center
06:25PM 33.1328 -98.5619 285° West 362 417 36,000  Level Fort Worth Center
06:26PM 33.1483 -98.6789 279° West 362 417 36,000  Level Fort Worth Center
06:27PM 33.1681 -98.7983 281° West 362 417 36,000  Level Fort Worth Center
06:28PM 33.1897 -98.9128 283° West 367 422 36,000  Level Fort Worth Center
06:29PM 33.2111 -99.0297 282° West 367 422 36,000  Level Fort Worth Center
06:30PM 33.2306 -99.1494 281° West 367 422 36,000  Level Fort Worth Center
06:31PM 33.2539 -99.2642 284° West 367 422 36,000  Level Fort Worth Center
06:32PM 33.2731 -99.3814 281° West 367 422 36,000  Level Fort Worth Center
06:33PM 33.2939 -99.4986 282° West 367 422 36,000  Level Fort Worth Center
06:34PM 33.3128 -99.6158 281° West 367 422 36,000  Level Fort Worth Center
06:35PM 33.3317 -99.7306 281° West 367 422 36,000  Level Fort Worth Center
06:36PM 33.3503 -99.8531 280° West 367 422 36,000  Level Fort Worth Center
06:37PM 33.3708 -99.9706 282° West 367 422 36,000  Level Fort Worth Center
06:38PM 33.3914 -100.0881 282° West 367 422 36,000  Level Fort Worth Center
06:39PM 33.4117 -100.2081 281° West 372 428 36,000 -720 Level Fort Worth Center
06:40PM 33.4300 -100.3231 281° West 372 428 34,600 -2,400 Descending Fort Worth Center
06:41PM 33.4481 -100.4408 280° West 372 428 31,300 -3,360 Descending Fort Worth Center
06:42PM 33.4678 -100.5633 281° West 372 428 27,900 -3,060 Descending Fort Worth Center
06:43PM 33.4878 -100.6811 282° West 372 428 25,200 -2,880 Descending Fort Worth Center
06:44PM 33.4978 -100.7836 277° West 363 418 22,900 -2,640 Descending Fort Worth Center
06:44PM 33.5078 -100.7964 313° West 372 428 22,600 -2,400 Descending Fort Worth Center
06:45PM 33.5272 -100.9219 281° West 361 415 19,900 -2,940 Descending Fort Worth Center
06:46PM 33.5450 -101.0297 281° West 344 396 16,800 -2,640 Descending Fort Worth Center
06:47PM 33.5608 -101.1350 280° West 334 384 14,700 -2,280 Descending Fort Worth Center
06:48PM 33.5786 -101.2381 282° West 324 373 12,300 -2,280 Descending Fort Worth Center
06:49PM 33.5964 -101.3386 282° West 312 359 10,200 -1,560 Descending Fort Worth Center
06:50PM 33.6225 -101.4294 289° West 299 344 9,200 -1,200 Descending Fort Worth Center
06:51PM 33.6469 -101.5153 289° West 282 325 7,800 -1,800 Descending Fort Worth Center
06:52PM 33.6731 -101.6089 289° West 288 331 5,600 -1,380 Descending Fort Worth Center
06:53PM 33.6992 -101.6975 290° West 288 331 5,100 -540 Descending Fort Worth Center
06:54PM 33.7217 -101.7761 289° West 274 315 4,600 -540 Descending Fort Worth Center
06:55PM 33.7197 -101.8308 268° West 128 147 4,000 -600 Descending Fort Worth Center
06:56PM 33.6864 -101.8292 178° South 103 119 3,400 -420 Descending Fort Worth Center
06:57PM 33.6647 -101.8481 216° Southwest 103 119 3,300 5,280 Descending Fort Worth Center
06:58PM 33.6369 -101.8667 209° Southwest 103 119 14,000 10,680 Climbing Fort Worth Center